createdAt,value
2022-12-08T00:01:56.786Z,99094.94
2022-12-08T00:04:24.821Z,99082.88
2022-12-08T00:07:20.438Z,99086.50
2022-12-08T00:09:48.376Z,99092.94
2022-12-08T00:12:16.791Z,99083.34
2022-12-08T00:14:46.819Z,99079.97
2022-12-08T00:17:16.418Z,99081.50
2022-12-08T00:19:45.627Z,99076.81
2022-12-08T00:22:15.337Z,99065.31
2022-12-08T00:24:45.763Z,99062.19
2022-12-08T00:27:18.122Z,99048.25
2022-12-08T00:29:46.688Z,99067.72
2022-12-08T00:32:14.847Z,99062.09
2022-12-08T00:34:42.984Z,99056.97
2022-12-08T00:37:10.938Z,99054.50
2022-12-08T00:39:40.361Z,99059.75
2022-12-08T00:42:15.489Z,99057.19
2022-12-08T00:44:44.849Z,99053.31
2022-12-08T00:47:14.045Z,99046.72
2022-12-08T00:49:42.158Z,99044.44
2022-12-08T00:52:10.249Z,99041.56
2022-12-08T00:54:38.661Z,99036.47
2022-12-08T00:57:08.177Z,99021.88
2022-12-08T00:59:36.149Z,99024.81
2022-12-08T01:02:04.172Z,99016.69
2022-12-08T01:04:32.394Z,99023.31
2022-12-08T01:07:00.441Z,99019.94
2022-12-08T01:09:28.498Z,99024.22
2022-12-08T01:11:57.051Z,99023.13
2022-12-08T01:14:26.613Z,99018.47
2022-12-08T01:16:54.779Z,99015.66
2022-12-08T01:19:22.812Z,99011.25
2022-12-08T01:21:50.858Z,98996.50
2022-12-08T01:24:20.954Z,99004.00
2022-12-08T01:26:49.744Z,98995.91
2022-12-08T01:29:18.394Z,99005.41
2022-12-08T01:31:48.067Z,99007.69
2022-12-08T01:34:16.410Z,98995.97
2022-12-08T01:36:44.964Z,98988.81
2022-12-08T01:39:16.592Z,98989.84
2022-12-08T01:41:46.470Z,98994.06
2022-12-08T01:44:56.061Z,98993.06
2022-12-08T01:47:31.020Z,98995.25
2022-12-08T01:49:59.406Z,98989.91
2022-12-08T01:52:34.139Z,98980.22
2022-12-08T01:55:07.358Z,98977.34
2022-12-08T01:57:40.541Z,98972.44
2022-12-08T02:00:11.377Z,98977.56
2022-12-08T02:02:50.977Z,98971.53
2022-12-08T02:05:22.225Z,98963.56
2022-12-08T02:07:50.989Z,98976.59
2022-12-08T02:10:21.048Z,98965.94
2022-12-08T02:12:51.915Z,98970.59
2022-12-08T02:15:20.266Z,98963.91
2022-12-08T02:18:08.537Z,98957.66
2022-12-08T02:20:51.225Z,98924.03
2022-12-08T02:23:28.603Z,98948.75
2022-12-08T02:26:33.130Z,98951.78
2022-12-08T02:29:26.938Z,98944.50
2022-12-08T02:32:13.507Z,98938.22
2022-12-08T02:34:48.739Z,98951.38
2022-12-08T02:37:24.345Z,98934.00
2022-12-08T02:39:59.762Z,98930.63
2022-12-08T02:42:34.090Z,98925.19
2022-12-08T02:45:06.507Z,98921.16
2022-12-08T02:47:35.596Z,98928.09
2022-12-08T02:50:05.843Z,98906.56
2022-12-08T02:52:41.812Z,98899.41
2022-12-08T02:55:16.193Z,98899.75
2022-12-08T02:58:00.079Z,98897.91
2022-12-08T03:00:37.473Z,98898.66
2022-12-08T03:03:12.731Z,98895.63
2022-12-08T03:05:55.463Z,98891.44
2022-12-08T03:08:29.598Z,98878.25
2022-12-08T03:11:03.279Z,98885.91
2022-12-08T03:13:37.022Z,98867.72
2022-12-08T03:16:09.580Z,98858.88
2022-12-08T03:18:44.134Z,98857.59
2022-12-08T03:21:16.658Z,98859.22
2022-12-08T03:23:47.699Z,98843.56
2022-12-08T03:26:20.626Z,98860.09
2022-12-08T03:28:48.932Z,98863.59
2022-12-08T03:31:19.639Z,98851.00
2022-12-08T03:33:53.226Z,98844.19
2022-12-08T03:36:23.620Z,98848.00
2022-12-08T03:38:55.401Z,98846.50
2022-12-08T03:41:23.959Z,98844.72
2022-12-08T03:43:53.786Z,98843.00
2022-12-08T03:48:50.363Z,98840.81
2022-12-08T03:51:19.432Z,98836.19
2022-12-08T03:53:49.426Z,98833.47
2022-12-08T03:56:23.921Z,98829.56
2022-12-08T03:58:52.334Z,98830.09
2022-12-08T04:01:20.561Z,98832.13
2022-12-08T04:03:49.127Z,98817.47
2022-12-08T04:06:17.427Z,98818.06
2022-12-08T04:08:45.654Z,98812.50
2022-12-08T04:11:15.204Z,98797.31
2022-12-08T04:13:43.867Z,98799.34
2022-12-08T04:16:17.153Z,98789.22
2022-12-08T04:18:45.860Z,98790.59
2022-12-08T04:21:14.401Z,98788.59
2022-12-08T04:23:44.698Z,98792.06
2022-12-08T04:26:16.511Z,98783.13
2022-12-08T04:28:45.110Z,98785.25
2022-12-08T04:31:13.393Z,98772.03
2022-12-08T04:33:41.378Z,98769.44
2022-12-08T04:36:10.541Z,98753.97
2022-12-08T04:38:38.748Z,98770.00
2022-12-08T04:41:06.988Z,98770.28
2022-12-08T04:43:36.757Z,98770.63
2022-12-08T04:46:08.637Z,98770.50
2022-12-08T04:48:39.108Z,98777.16
2022-12-08T04:51:17.558Z,98774.16
2022-12-08T04:53:46.991Z,98760.81
2022-12-08T04:56:15.884Z,98755.38
2022-12-08T04:58:45.580Z,98753.41
2022-12-08T05:01:14.821Z,98750.66
2022-12-08T05:03:43.094Z,98752.75
2022-12-08T05:06:13.088Z,98740.38
2022-12-08T05:08:41.088Z,98743.81
2022-12-08T05:11:12.018Z,98743.47
2022-12-08T05:13:40.231Z,98730.72
2022-12-08T05:16:12.291Z,98722.50
2022-12-08T05:18:41.603Z,98722.34
2022-12-08T05:21:10.030Z,98726.31
2022-12-08T05:23:38.157Z,98723.59
2022-12-08T05:26:06.616Z,98729.69
2022-12-08T05:28:43.376Z,98719.03
2022-12-08T05:31:14.713Z,98719.50
2022-12-08T05:33:42.945Z,98728.50
2022-12-08T05:36:13.033Z,98719.03
2022-12-08T05:38:41.302Z,98716.28
2022-12-08T05:41:10.687Z,98715.56
2022-12-08T05:43:38.895Z,98714.28
2022-12-08T05:46:08.780Z,98703.59
2022-12-08T05:48:38.418Z,98702.13
2022-12-08T05:51:09.479Z,98712.06
2022-12-08T05:53:37.517Z,98712.44
2022-12-08T05:56:06.351Z,98711.44
2022-12-08T05:58:34.469Z,98704.38
2022-12-08T06:01:03.261Z,98707.28
2022-12-08T06:03:31.302Z,98693.78
2022-12-08T06:06:00.728Z,98699.41
2022-12-08T06:08:28.950Z,98693.22
2022-12-08T06:10:56.959Z,98691.41
2022-12-08T06:13:24.936Z,98684.69
2022-12-08T06:15:52.955Z,98681.19
2022-12-08T06:18:20.931Z,98685.50
2022-12-08T06:20:49.432Z,98675.19
2022-12-08T06:23:18.941Z,98675.13
2022-12-08T06:25:46.944Z,98673.66
2022-12-08T06:28:15.114Z,98668.84
2022-12-08T06:30:43.175Z,98669.00
2022-12-08T06:33:11.108Z,98669.38
2022-12-08T06:35:39.210Z,98657.13
2022-12-08T06:38:07.460Z,98648.03
2022-12-08T06:40:36.994Z,98657.47
2022-12-08T06:43:05.020Z,98663.63
2022-12-08T06:45:33.270Z,98657.47
2022-12-08T06:48:03.124Z,98647.63
2022-12-08T06:50:32.640Z,98644.31
2022-12-08T06:53:05.230Z,98636.16
2022-12-08T06:55:57.865Z,98638.34
2022-12-08T06:58:23.727Z,98636.97
2022-12-08T07:00:51.854Z,98635.81
2022-12-08T07:03:20.048Z,98637.38
2022-12-08T07:05:48.219Z,98626.88
2022-12-08T07:08:16.596Z,98637.69
2022-12-08T07:10:44.570Z,98633.53
2022-12-08T07:13:12.593Z,98628.81
2022-12-08T07:15:42.069Z,98632.53
2022-12-08T07:18:10.145Z,98633.06
2022-12-08T07:20:38.305Z,98619.53
2022-12-08T07:23:06.258Z,98628.00
2022-12-08T07:25:34.272Z,98627.88
2022-12-08T07:28:02.298Z,98625.22
2022-12-08T07:30:30.534Z,98628.09
2022-12-08T07:32:59.917Z,98636.38
2022-12-08T07:35:27.936Z,98632.13
2022-12-08T07:37:55.949Z,98634.03
2022-12-08T07:40:24.098Z,98629.59
2022-12-08T07:42:52.128Z,98627.75
2022-12-08T07:45:20.233Z,98624.53
2022-12-08T07:47:48.600Z,98630.22
2022-12-08T07:50:17.993Z,98619.22
2022-12-08T07:52:45.962Z,98615.84
2022-12-08T07:55:13.975Z,98618.41
2022-12-08T07:57:42.022Z,98610.34
2022-12-08T08:00:12.628Z,98607.03
2022-12-08T08:02:40.991Z,98601.75
2022-12-08T08:05:10.445Z,98594.75
2022-12-08T08:07:42.086Z,98601.69
2022-12-08T08:10:11.878Z,98585.94
2022-12-08T08:12:40.467Z,98580.09
2022-12-08T08:15:10.482Z,98572.69
2022-12-08T08:17:39.306Z,98568.38
2022-12-08T08:20:08.774Z,98562.69
2022-12-08T08:22:37.216Z,98574.19
2022-12-08T08:25:07.532Z,98574.50
2022-12-08T08:27:35.726Z,98566.97
2022-12-08T08:30:04.089Z,98553.44
2022-12-08T08:32:35.002Z,98538.72
2022-12-08T08:35:03.806Z,98545.25
2022-12-08T08:37:31.749Z,98529.19
2022-12-08T08:39:59.846Z,98556.66
2022-12-08T08:42:29.283Z,98557.66
2022-12-08T08:44:57.274Z,98550.50
2022-12-08T08:47:25.376Z,98553.56
2022-12-08T08:49:53.329Z,98547.91
2022-12-08T08:52:21.283Z,98543.34
2022-12-08T08:54:49.476Z,98554.28
2022-12-08T08:57:23.605Z,98554.09
2022-12-08T08:59:55.183Z,98539.59
2022-12-08T09:02:23.409Z,98539.69
2022-12-08T09:04:52.635Z,98549.59
2022-12-08T09:07:20.682Z,98553.84
2022-12-08T09:09:48.721Z,98557.34
2022-12-08T09:12:16.699Z,98556.06
2022-12-08T09:14:44.673Z,98560.94
2022-12-08T09:17:14.708Z,98551.75
2022-12-08T09:19:42.746Z,98560.66
2022-12-08T09:22:10.786Z,98539.59
2022-12-08T09:24:39.051Z,98557.50
2022-12-08T09:27:07.487Z,98542.09
2022-12-08T09:29:36.581Z,98535.59
2022-12-08T09:32:04.828Z,98529.69
2022-12-08T09:34:34.389Z,98522.78
2022-12-08T09:37:02.377Z,98525.59
2022-12-08T09:39:30.420Z,98516.09
2022-12-08T09:42:01.571Z,98516.81
2022-12-08T09:44:48.975Z,98507.34
2022-12-08T09:47:23.105Z,98523.25
2022-12-08T09:49:59.517Z,98511.66
2022-12-08T09:52:31.459Z,98503.06
2022-12-08T09:55:02.559Z,98509.72
2022-12-08T09:57:32.088Z,98486.00
2022-12-08T10:00:06.069Z,98492.97
2022-12-08T10:02:34.830Z,98483.38
2022-12-08T10:05:04.338Z,98479.34
2022-12-08T10:07:40.463Z,98489.47
2022-12-08T10:10:22.109Z,98496.44
2022-12-08T10:12:55.524Z,98490.84
2022-12-08T10:15:43.046Z,98459.28
2022-12-08T10:18:17.392Z,98488.44
2022-12-08T10:20:49.414Z,98500.38
2022-12-08T10:23:25.882Z,98490.09
2022-12-08T10:26:00.499Z,98490.44
2022-12-08T10:28:28.558Z,98477.63
2022-12-08T10:30:56.729Z,98476.25
2022-12-08T10:33:24.890Z,98465.31
2022-12-08T10:35:56.388Z,98455.06
2022-12-08T10:38:28.095Z,98468.69
2022-12-08T10:41:02.758Z,98464.53
2022-12-08T10:43:30.860Z,98446.47
2022-12-08T10:46:11.106Z,98412.63
2022-12-08T10:48:49.587Z,98443.75
2022-12-08T10:51:29.850Z,98434.09
2022-12-08T10:53:58.515Z,98410.22
2022-12-08T10:56:29.612Z,98407.00
2022-12-08T10:59:17.966Z,98437.81
2022-12-08T11:01:48.739Z,98426.56
2022-12-08T11:04:19.857Z,98426.59
2022-12-08T11:06:51.005Z,98424.72
2022-12-08T11:09:46.792Z,98416.47
2022-12-08T11:12:16.621Z,98409.34
2022-12-08T11:14:51.811Z,98408.94
2022-12-08T11:17:29.718Z,98404.59
2022-12-08T11:20:00.702Z,98398.88
2022-12-08T11:22:33.146Z,98406.72
2022-12-08T11:25:04.047Z,98393.75
2022-12-08T11:27:35.746Z,98396.84
2022-12-08T11:30:14.797Z,98386.53
2022-12-08T11:32:45.930Z,98374.56
2022-12-08T11:35:23.964Z,98382.19
2022-12-08T11:38:13.561Z,98377.00
2022-12-08T11:40:45.735Z,98367.94
2022-12-08T11:43:20.522Z,98369.19
2022-12-08T11:45:54.944Z,98356.63
2022-12-08T11:48:31.239Z,98348.56
2022-12-08T11:51:05.086Z,98347.34
2022-12-08T11:53:40.634Z,98335.38
2022-12-08T11:56:18.021Z,98324.88
2022-12-08T11:58:49.623Z,98339.50
2022-12-08T12:01:21.209Z,98339.50
2022-12-08T12:04:00.670Z,98338.06
2022-12-08T12:06:56.278Z,98331.88
2022-12-08T12:09:36.461Z,98329.63
2022-12-08T12:12:17.019Z,98327.13
2022-12-08T12:15:21.235Z,98327.34
2022-12-08T12:17:54.327Z,98324.25
2022-12-08T12:20:28.056Z,98331.25
2022-12-08T12:23:02.855Z,98300.34
2022-12-08T12:25:34.043Z,98320.13
2022-12-08T12:28:04.672Z,98315.81
2022-12-08T12:30:50.845Z,98315.19
2022-12-08T12:33:19.814Z,98310.84
2022-12-08T12:35:49.174Z,98307.34
2022-12-08T12:38:42.086Z,98299.09
2022-12-08T12:41:14.426Z,98301.59
2022-12-08T12:44:09.876Z,98292.91
2022-12-08T12:46:57.653Z,98297.41
2022-12-08T12:49:52.058Z,98293.69
2022-12-08T12:52:46.369Z,98291.00
2022-12-08T12:55:52.230Z,98282.56
2022-12-08T12:58:37.619Z,98287.47
2022-12-08T13:01:51.775Z,98290.56
2022-12-08T13:04:20.294Z,98286.03
2022-12-08T13:06:51.459Z,98283.75
2022-12-08T13:09:28.342Z,98273.63
2022-12-08T13:11:59.338Z,98264.16
2022-12-08T13:14:35.161Z,98276.75
2022-12-08T13:17:06.320Z,98267.03
2022-12-08T13:19:36.716Z,98264.31
2022-12-08T13:22:04.911Z,98255.66
2022-12-08T13:24:36.006Z,98258.91
2022-12-08T13:27:36.189Z,98266.78
2022-12-08T13:30:41.423Z,98264.13
2022-12-08T13:33:18.984Z,98265.34
2022-12-08T13:35:54.728Z,98260.28
2022-12-08T13:38:27.639Z,98255.34
2022-12-08T13:40:58.244Z,98257.00
2022-12-08T13:43:48.452Z,98252.28
2022-12-08T13:56:51.626Z,98244.28
2022-12-08T13:58:19.240Z,98250.25
2022-12-08T14:01:04.110Z,98220.59
2022-12-08T14:03:35.543Z,98222.84
2022-12-08T14:06:13.544Z,98232.13
2022-12-08T14:09:01.213Z,98234.38
2022-12-08T14:11:35.820Z,98224.09
2022-12-08T14:14:06.844Z,98229.91
2022-12-08T14:16:38.771Z,98234.03
2022-12-08T14:19:15.852Z,98230.28
2022-12-08T14:21:47.934Z,98229.66
2022-12-08T14:24:15.935Z,98233.97
2022-12-08T14:26:54.266Z,98223.22
2022-12-08T14:29:45.180Z,98218.50
2022-12-08T14:32:31.607Z,98224.50
2022-12-08T14:35:03.383Z,98226.16
2022-12-08T14:37:34.552Z,98221.22
2022-12-08T14:40:05.613Z,98220.78
2022-12-08T14:42:44.768Z,98219.56
2022-12-08T14:45:15.197Z,98232.78
2022-12-08T14:47:43.601Z,98234.44
2022-12-08T14:50:45.788Z,98224.53
2022-12-08T14:53:19.008Z,98223.31
2022-12-08T14:55:48.734Z,98241.41
2022-12-08T14:58:24.204Z,98239.78
2022-12-08T15:00:54.644Z,98251.31
2022-12-08T15:03:24.851Z,98257.91
2022-12-08T15:05:53.921Z,98243.84
2022-12-08T15:08:23.664Z,98248.97
2022-12-08T15:11:25.751Z,98256.78
2022-12-08T15:13:54.466Z,98260.50
2022-12-08T15:16:28.691Z,98252.91
2022-12-08T15:19:06.444Z,98255.16
2022-12-08T15:21:39.091Z,98255.78
2022-12-08T15:24:12.635Z,98245.88
2022-12-08T15:26:43.450Z,98238.25
2022-12-08T15:29:13.375Z,98246.25
2022-12-08T15:31:41.562Z,98243.91
2022-12-08T15:34:09.688Z,98261.88
2022-12-08T15:36:38.338Z,98255.34
2022-12-08T15:39:14.807Z,98225.66
2022-12-08T15:41:42.856Z,98193.34
2022-12-08T15:44:11.104Z,98237.03
2022-12-08T15:46:39.283Z,98217.84
2022-12-08T15:49:07.490Z,98232.88
2022-12-08T15:51:36.871Z,98220.94
2022-12-08T15:54:05.112Z,98226.94
2022-12-08T15:56:45.287Z,98221.53
2022-12-08T15:59:25.444Z,98224.97
2022-12-08T16:01:53.961Z,98224.59
2022-12-08T16:07:22.627Z,98236.34
2022-12-08T16:09:51.106Z,98240.06
2022-12-08T16:18:23.970Z,98241.59
2022-12-08T16:21:19.042Z,98245.69
2022-12-08T16:23:43.595Z,98251.41
2022-12-08T16:26:35.546Z,98246.88
2022-12-08T16:29:03.896Z,98240.56
2022-12-08T16:31:32.003Z,98238.13
2022-12-08T16:34:00.109Z,98237.88
2022-12-08T16:36:28.368Z,98233.53
2022-12-08T16:38:56.409Z,98228.34
2022-12-08T16:41:41.967Z,98226.75
2022-12-08T16:44:11.552Z,98234.91
2022-12-08T16:46:39.828Z,98233.66
2022-12-08T16:49:10.110Z,98232.69
2022-12-08T16:51:38.141Z,98230.69
2022-12-08T16:54:06.408Z,98229.06
2022-12-08T16:56:34.429Z,98235.47
2022-12-08T16:59:03.010Z,98227.91
2022-12-08T17:01:32.609Z,98227.28
2022-12-08T17:04:29.922Z,98236.69
2022-12-08T17:06:50.931Z,98240.34
2022-12-08T17:09:19.012Z,98242.41
2022-12-08T17:11:49.207Z,98202.81
2022-12-08T17:14:17.462Z,98234.00
2022-12-08T17:16:47.234Z,98219.41
2022-12-08T17:19:16.301Z,98221.06
2022-12-08T17:21:45.187Z,98215.88
2022-12-08T17:24:15.981Z,98211.66
2022-12-08T17:26:48.360Z,98221.41
2022-12-08T17:29:18.682Z,98220.00
2022-12-08T17:31:50.878Z,98221.31
2022-12-08T17:34:21.266Z,98227.31
2022-12-08T17:36:49.338Z,98219.13
2022-12-08T17:39:18.930Z,98218.00
2022-12-08T17:41:47.672Z,98224.81
2022-12-08T17:44:18.555Z,98223.66
2022-12-08T17:46:52.547Z,98224.09
2022-12-08T17:49:25.018Z,98220.41
2022-12-08T17:51:55.544Z,98219.72
2022-12-08T17:54:23.794Z,98230.53
2022-12-08T17:56:52.072Z,98229.75
2022-12-08T17:59:20.373Z,98226.47
2022-12-08T18:01:48.493Z,98223.41
2022-12-08T18:04:16.594Z,98215.06
2022-12-08T18:06:46.425Z,98219.16
2022-12-08T18:09:17.059Z,98208.88
2022-12-08T18:11:46.333Z,98222.72
2022-12-08T18:14:15.263Z,98221.63
2022-12-08T18:16:45.721Z,98212.69
2022-12-08T18:19:14.800Z,98207.41
2022-12-08T18:21:45.475Z,98197.81
2022-12-08T18:24:19.015Z,98207.91
2022-12-08T18:26:47.303Z,98191.69
2022-12-08T18:29:15.499Z,98198.53
2022-12-08T18:31:43.697Z,98197.44
2022-12-08T18:34:12.133Z,98198.72
2022-12-08T18:36:40.157Z,98193.13
2022-12-08T18:39:22.699Z,98175.88
2022-12-08T18:41:51.287Z,98180.50
2022-12-08T18:44:19.645Z,98167.28
2022-12-08T18:46:47.776Z,98176.13
2022-12-08T18:49:18.830Z,98178.53
2022-12-08T18:51:47.708Z,98174.16
2022-12-08T18:54:17.269Z,98168.72
2022-12-08T18:56:45.226Z,98166.72
2022-12-08T18:59:14.129Z,98167.13
2022-12-08T19:01:42.686Z,98170.06
2022-12-08T19:04:28.544Z,98145.53
2022-12-08T19:06:58.181Z,98187.50
2022-12-08T19:09:29.009Z,98186.66
2022-12-08T19:11:58.046Z,98179.44
2022-12-08T19:14:28.498Z,98179.97
2022-12-08T19:16:56.862Z,98174.16
2022-12-08T19:19:25.019Z,98166.38
2022-12-08T19:21:53.216Z,98150.13
2022-12-08T19:24:21.286Z,98147.63
2022-12-08T19:26:53.126Z,98135.63
2022-12-08T19:29:21.230Z,98135.00
2022-12-08T19:31:49.351Z,98141.16
2022-12-08T19:34:17.723Z,98143.16
2022-12-08T19:36:46.108Z,98137.31
2022-12-08T19:39:34.199Z,98136.47
2022-12-08T19:42:21.521Z,98134.97
2022-12-08T19:44:55.540Z,98143.88
2022-12-08T19:47:25.363Z,98120.97
2022-12-08T19:49:54.834Z,98117.69
2022-12-08T19:52:25.129Z,98126.31
2022-12-08T19:54:53.137Z,98113.84
2022-12-08T19:57:22.680Z,98103.81
2022-12-08T19:59:56.406Z,98102.59
2022-12-08T20:02:24.766Z,98082.28
2022-12-08T20:04:52.813Z,98084.69
2022-12-08T20:07:21.129Z,98072.06
2022-12-08T20:09:49.167Z,98070.47
2022-12-08T20:12:17.210Z,98094.44
2022-12-08T20:14:46.732Z,98097.41
2022-12-08T20:17:20.445Z,98083.91
2022-12-08T20:19:48.442Z,98081.97
2022-12-08T20:22:16.394Z,98084.81
2022-12-08T20:24:44.431Z,98086.91
2022-12-08T20:27:12.443Z,98073.53
2022-12-08T20:29:40.437Z,98079.03
2022-12-08T20:32:09.862Z,98078.84
2022-12-08T20:34:37.865Z,98075.88
2022-12-08T20:37:05.862Z,98061.78
2022-12-08T20:39:36.818Z,98078.53
2022-12-08T20:42:04.956Z,98089.06
2022-12-08T20:44:35.951Z,98081.66
2022-12-08T20:47:04.066Z,98068.59
2022-12-08T20:49:34.955Z,98075.69
2022-12-08T20:52:06.792Z,98063.63
2022-12-08T20:54:35.244Z,98071.50
2022-12-08T20:57:03.290Z,98049.28
2022-12-08T20:59:31.559Z,98056.53
2022-12-08T21:02:00.449Z,98055.38
2022-12-08T21:04:28.992Z,98046.56
2022-12-08T21:06:58.732Z,98024.16
2022-12-08T21:09:27.021Z,98016.13
2022-12-08T21:11:55.227Z,98021.81
2022-12-08T21:14:23.337Z,98029.53
2022-12-08T21:16:51.598Z,98028.22
2022-12-08T21:19:20.111Z,98013.47
2022-12-08T21:21:51.657Z,98021.13
2022-12-08T21:24:25.508Z,98016.66
2022-12-08T21:26:57.148Z,98016.38
2022-12-08T21:29:25.452Z,98024.00
2022-12-08T21:31:58.769Z,98014.34
2022-12-08T21:34:32.010Z,97999.00
2022-12-08T21:37:00.329Z,97994.03
2022-12-08T21:39:29.853Z,97991.06
2022-12-08T21:42:17.471Z,98002.09
2022-12-08T21:44:46.818Z,97994.72
2022-12-08T21:47:15.098Z,97992.81
2022-12-08T21:49:43.486Z,97990.06
2022-12-08T21:52:11.659Z,97994.00
2022-12-08T21:54:41.178Z,97993.84
2022-12-08T21:57:09.605Z,97996.88
2022-12-08T21:59:37.758Z,97997.44
2022-12-08T22:02:08.363Z,97982.28
2022-12-08T22:04:36.739Z,97976.22
2022-12-08T22:07:05.022Z,97956.16
2022-12-08T22:09:33.358Z,97970.69
2022-12-08T22:12:02.890Z,97969.31
2022-12-08T22:14:31.069Z,97974.56
2022-12-08T22:16:59.535Z,97969.50
2022-12-08T22:19:27.800Z,97964.75
2022-12-08T22:21:55.917Z,97974.09
2022-12-08T22:24:24.123Z,97968.63
2022-12-08T22:26:54.935Z,97978.00
2022-12-08T22:29:24.523Z,97979.38
2022-12-08T22:31:52.806Z,97973.41
2022-12-08T22:34:21.129Z,97978.81
2022-12-08T22:36:49.972Z,97987.03
2022-12-08T22:39:18.443Z,97987.38
2022-12-08T22:41:46.517Z,97989.78
2022-12-08T22:44:16.359Z,97993.47
2022-12-08T22:46:46.202Z,97993.47
2022-12-08T22:49:14.411Z,97984.34
2022-12-08T22:51:42.480Z,97988.34
2022-12-08T22:54:11.704Z,97979.91
2022-12-08T22:56:39.879Z,97976.88
2022-12-08T22:59:08.322Z,97970.47
2022-12-08T23:01:37.426Z,97971.03
2022-12-08T23:04:09.191Z,97975.59
2022-12-08T23:06:40.708Z,97961.41
2022-12-08T23:09:08.933Z,97969.19
2022-12-08T23:11:37.552Z,97977.91
2022-12-08T23:14:05.578Z,97959.75
2022-12-08T23:16:33.787Z,97954.19
2022-12-08T23:19:02.304Z,97938.66
2022-12-08T23:21:31.797Z,97933.03
2022-12-08T23:24:02.205Z,97932.94
2022-12-08T23:26:32.178Z,97926.03
2022-12-08T23:29:01.172Z,97909.78
2022-12-08T23:31:29.759Z,97911.84
2022-12-08T23:34:00.831Z,97909.03
2022-12-08T23:36:28.917Z,97897.06
2022-12-08T23:38:58.866Z,97916.25
2022-12-08T23:41:27.017Z,97910.69
2022-12-08T23:43:55.004Z,97895.84
2022-12-08T23:46:24.596Z,97898.41
2022-12-08T23:48:55.589Z,97902.38
2022-12-08T23:51:23.710Z,97908.50
2022-12-08T23:53:51.926Z,97909.25
2022-12-08T23:56:23.265Z,97908.09
2022-12-08T23:58:54.949Z,97906.13
